Time;durP1;ratioP1;P1;durP2;ratioP2;P2;SDS_P1;SDS_P2;PMS_P1;PMS_P2;Temp;Humidity;BMP_temperature;BMP_pressure;BME280_temperature;BME280_humidity;BME280_pressure;Samples;Min_cycle;Max_cycle;Signal;HPM_P1;HPM_P2
2022/09/16 00:01:01;;;;;;;11.13;6.70;;;12.30;99.90;;;;;;5089980;28;20458;-68
2022/09/16 00:03:31;;;;;;;15.17;6.70;;;12.30;99.90;;;;;;5093431;28;20450;-71
2022/09/16 00:05:58;;;;;;;7.13;6.50;;;12.30;99.90;;;;;;5094270;28;20477;-67
2022/09/16 00:08:24;;;;;;;7.20;6.43;;;12.30;99.90;;;;;;5100727;28;20842;-68
2022/09/16 00:10:52;;;;;;;7.20;6.70;;;12.20;99.90;;;;;;5093383;28;20550;-68
2022/09/16 00:13:21;;;;;;;7.43;6.93;;;12.20;99.90;;;;;;5098739;28;20524;-68
2022/09/16 00:15:50;;;;;;;7.80;7.00;;;12.20;99.90;;;;;;5089978;28;20473;-68
2022/09/16 00:18:17;;;;;;;10.30;7.10;;;12.10;99.90;;;;;;5099660;28;20548;-70
2022/09/16 00:20:47;;;;;;;10.23;6.30;;;12.10;99.90;;;;;;5096921;28;20481;-68
2022/09/16 00:23:14;;;;;;;8.90;7.43;;;12.10;99.90;;;;;;5096890;28;20461;-69
2022/09/16 00:25:41;;;;;;;6.70;6.20;;;12.10;99.90;;;;;;5095330;28;20458;-68
2022/09/16 00:28:08;;;;;;;17.70;7.10;;;12.00;99.90;;;;;;5093213;28;20852;-71
2022/09/16 00:30:35;;;;;;;7.13;6.53;;;11.90;99.90;;;;;;5096167;28;20460;-69
2022/09/16 00:33:02;;;;;;;7.20;6.73;;;11.90;99.90;;;;;;5096087;28;20484;-69
2022/09/16 00:35:29;;;;;;;9.17;7.20;;;11.80;99.90;;;;;;5091065;28;20820;-70
2022/09/16 00:37:57;;;;;;;8.67;7.87;;;11.80;99.90;;;;;;5094003;28;20851;-70
2022/09/16 00:40:24;;;;;;;12.03;7.60;;;11.70;99.90;;;;;;5097156;28;20453;-68
2022/09/16 00:42:52;;;;;;;7.60;7.00;;;11.80;99.90;;;;;;5092448;28;20469;-68
2022/09/16 00:45:21;;;;;;;8.30;7.60;;;11.80;99.90;;;;;;5101841;28;20455;-70
2022/09/16 00:47:51;;;;;;;7.87;7.20;;;11.80;99.90;;;;;;5092168;28;20515;-71
2022/09/16 00:50:22;;;;;;;7.23;6.60;;;11.80;99.90;;;;;;5089381;28;20539;-68
2022/09/16 00:52:51;;;;;;;8.03;6.30;;;11.90;99.90;;;;;;5091413;28;20493;-68
2022/09/16 00:55:23;;;;;;;9.40;6.87;;;11.90;99.90;;;;;;5090816;28;20465;-71
2022/09/16 00:57:52;;;;;;;8.27;7.43;;;12.10;99.90;;;;;;5100828;28;20462;-68
2022/09/16 01:00:19;;;;;;;8.80;6.40;;;12.20;99.90;;;;;;5096441;28;20586;-68
2022/09/16 01:02:48;;;;;;;10.63;6.60;;;12.30;99.90;;;;;;5090886;28;20563;-68
2022/09/16 01:05:17;;;;;;;6.20;5.70;;;12.30;99.90;;;;;;5090172;28;20986;-68
2022/09/16 01:07:45;;;;;;;6.57;6.17;;;12.40;99.90;;;;;;5090800;28;20544;-68
2022/09/16 01:10:13;;;;;;;8.00;5.90;;;12.40;99.90;;;;;;5098535;28;20473;-70
2022/09/16 01:12:44;;;;;;;7.70;6.30;;;12.40;99.90;;;;;;5094670;28;20699;-69
2022/09/16 01:15:13;;;;;;;8.37;7.63;;;12.50;99.90;;;;;;5093108;28;20478;-69
2022/09/16 01:18:08;;;;;;;13.93;9.30;;;12.50;99.90;;;;;;5091257;28;20462;-71
2022/09/16 01:21:01;;;;;;;16.90;6.77;;;12.60;99.90;;;;;;5091757;28;20469;-69
2022/09/16 01:23:49;;;;;;;8.47;7.00;;;12.70;99.90;;;;;;5097024;28;20461;-68
2022/09/16 01:26:53;;;;;;;7.13;6.30;;;12.60;99.90;;;;;;5093561;28;20470;-68
2022/09/16 01:30:06;;;;;;;6.33;5.83;;;12.70;99.90;;;;;;5048248;28;20473;-68
2022/09/16 01:32:43;;;;;;;9.40;7.30;;;12.80;99.90;;;;;;5023713;28;20485;-68
2022/09/16 01:35:22;;;;;;;8.90;6.63;;;12.80;99.90;;;;;;5023967;28;20465;-69
2022/09/16 01:37:56;;;;;;;6.97;6.40;;;12.80;99.90;;;;;;5067802;28;20469;-71
2022/09/16 01:40:28;;;;;;;7.10;6.33;;;12.80;99.90;;;;;;5090030;28;21346;-69
2022/09/16 01:43:04;;;;;;;11.43;6.60;;;12.80;99.90;;;;;;5094356;28;20820;-69
2022/09/16 01:45:39;;;;;;;10.27;6.30;;;12.90;99.90;;;;;;5092556;28;20457;-69
2022/09/16 01:48:12;;;;;;;6.57;5.97;;;12.90;99.90;;;;;;5093847;28;20460;-69
2022/09/16 01:50:44;;;;;;;8.50;7.83;;;12.90;99.90;;;;;;5093767;28;20455;-69
2022/09/16 01:53:16;;;;;;;12.37;10.50;;;12.90;99.90;;;;;;5094286;28;20554;-70
2022/09/16 01:55:52;;;;;;;12.10;11.20;;;12.90;99.90;;;;;;5091998;28;20462;-69
2022/09/16 01:58:26;;;;;;;15.23;14.13;;;12.90;99.90;;;;;;5091877;28;20840;-68
2022/09/16 02:00:59;;;;;;;18.23;16.70;;;12.90;99.90;;;;;;5092919;28;21470;-68
2022/09/16 02:03:32;;;;;;;17.57;16.17;;;12.80;99.90;;;;;;5090432;28;20493;-68
2022/09/16 02:06:03;;;;;;;16.50;15.40;;;12.70;99.90;;;;;;5097822;28;20991;-69
2022/09/16 02:08:36;;;;;;;16.63;15.43;;;12.70;99.90;;;;;;5092851;28;20489;-70
2022/09/16 02:11:08;;;;;;;16.37;15.17;;;12.60;99.90;;;;;;5096500;28;20987;-71
2022/09/16 02:13:39;;;;;;;15.90;14.47;;;12.50;99.90;;;;;;5086497;28;20481;-68
2022/09/16 02:16:13;;;;;;;16.27;14.97;;;12.50;99.90;;;;;;5095672;28;20470;-70
2022/09/16 02:18:44;;;;;;;15.77;14.50;;;12.40;99.90;;;;;;5093145;28;20622;-69
2022/09/16 02:21:15;;;;;;;15.23;14.20;;;12.30;99.90;;;;;;5091038;28;20454;-68
2022/09/16 02:23:46;;;;;;;15.03;13.93;;;12.20;99.90;;;;;;5094084;28;20450;-71
2022/09/16 02:26:18;;;;;;;15.57;14.50;;;12.10;99.90;;;;;;5090033;28;20823;-68
2022/09/16 02:28:48;;;;;;;15.50;14.50;;;12.10;99.90;;;;;;5091700;28;20485;-69
2022/09/16 02:31:19;;;;;;;16.03;14.87;;;12.00;99.90;;;;;;5090169;28;20472;-69
2022/09/16 02:33:53;;;;;;;16.27;15.20;;;11.90;99.90;;;;;;5088783;28;20641;-69
2022/09/16 02:36:22;;;;;;;16.40;15.10;;;11.90;99.90;;;;;;5095984;28;20468;-69
2022/09/16 02:38:53;;;;;;;18.03;16.33;;;11.90;99.90;;;;;;5098109;28;20458;-69
2022/09/16 02:41:20;;;;;;;16.77;15.60;;;11.90;99.90;;;;;;5092432;28;20462;-69
2022/09/16 02:43:47;;;;;;;15.60;14.33;;;11.90;99.90;;;;;;5094139;28;20457;-68
2022/09/16 02:46:22;;;;;;;15.80;14.43;;;11.90;99.90;;;;;;5092096;28;21090;-70
2022/09/16 02:48:57;;;;;;;16.57;15.33;;;11.90;99.90;;;;;;5088928;28;20492;-68
2022/09/16 02:51:32;;;;;;;16.70;15.33;;;11.80;99.90;;;;;;5087242;28;20458;-70
2022/09/16 02:54:05;;;;;;;16.47;15.03;;;11.80;99.90;;;;;;5097144;28;20883;-69
2022/09/16 02:56:35;;;;;;;22.70;16.07;;;11.90;99.90;;;;;;5091580;28;20456;-68
2022/09/16 02:59:02;;;;;;;17.07;15.63;;;11.90;99.90;;;;;;5091750;28;20458;-68
2022/09/16 03:01:32;;;;;;;17.27;15.70;;;11.80;99.90;;;;;;5091867;28;20823;-68
2022/09/16 03:04:02;;;;;;;16.53;15.07;;;11.80;99.90;;;;;;5091191;28;20514;-68
2022/09/16 03:06:34;;;;;;;16.77;15.57;;;11.80;99.90;;;;;;5090521;28;20495;-70
2022/09/16 03:09:04;;;;;;;15.37;14.23;;;11.80;99.90;;;;;;5093130;28;20481;-71
2022/09/16 03:11:55;;;;;;;17.13;15.43;;;11.90;99.90;;;;;;5094493;28;20458;-70
2022/09/16 03:14:54;;;;;;;15.20;14.07;;;11.90;99.90;;;;;;5104817;28;20578;-67
2022/09/16 03:17:36;;;;;;;14.83;13.60;;;12.00;99.90;;;;;;5092561;28;20449;-70
2022/09/16 03:20:12;;;;;;;14.13;13.13;;;12.00;99.90;;;;;;5095921;28;20465;-68
2022/09/16 03:22:48;;;;;;;14.73;13.63;;;12.00;99.90;;;;;;5096004;28;20468;-69
2022/09/16 03:25:25;;;;;;;15.10;14.00;;;11.90;99.90;;;;;;5093676;28;20465;-68
2022/09/16 03:27:58;;;;;;;15.23;13.90;;;11.90;99.90;;;;;;5095617;28;20484;-69
2022/09/16 03:30:26;;;;;;;16.10;13.37;;;11.90;99.90;;;;;;5092727;28;20457;-70
2022/09/16 03:32:56;;;;;;;15.30;14.00;;;11.90;99.90;;;;;;5092867;28;20486;-68
2022/09/16 03:35:32;;;;;;;15.27;13.70;;;11.90;99.90;;;;;;5100095;28;20968;-68
2022/09/16 03:38:00;;;;;;;15.07;13.60;;;11.80;99.90;;;;;;5094543;28;20465;-69
2022/09/16 03:40:30;;;;;;;19.87;13.77;;;11.70;99.90;;;;;;5096106;28;20851;-69
2022/09/16 03:42:57;;;;;;;15.13;13.57;;;11.80;99.90;;;;;;5102981;28;20457;-68
2022/09/16 03:45:25;;;;;;;15.30;13.97;;;11.70;99.90;;;;;;5097226;28;20457;-70
2022/09/16 03:47:53;;;;;;;15.40;13.90;;;11.60;99.90;;;;;;5097363;28;20457;-70
2022/09/16 03:50:21;;;;;;;14.93;13.63;;;11.50;99.90;;;;;;5095683;28;20824;-69
2022/09/16 03:52:49;;;;;;;15.90;14.43;;;11.50;99.90;;;;;;5094407;28;20489;-70
2022/09/16 03:55:16;;;;;;;15.23;13.93;;;11.40;99.90;;;;;;5094461;28;20465;-68
2022/09/16 03:57:43;;;;;;;22.27;13.60;;;11.40;99.90;;;;;;5094988;28;20460;-68
2022/09/16 04:00:11;;;;;;;21.80;13.43;;;11.40;99.90;;;;;;5093611;28;21506;-69
2022/09/16 04:02:38;;;;;;;14.70;13.60;;;11.40;99.90;;;;;;5091276;28;20472;-69
2022/09/16 04:05:07;;;;;;;14.93;13.63;;;11.50;99.90;;;;;;5093724;28;20914;-68
2022/09/16 04:07:34;;;;;;;17.67;14.00;;;11.40;99.90;;;;;;5092766;28;20484;-70
2022/09/16 04:10:02;;;;;;;15.33;14.00;;;11.40;99.90;;;;;;5090648;28;20465;-68
2022/09/16 04:12:29;;;;;;;14.40;13.20;;;11.30;99.90;;;;;;5093603;28;20454;-70
2022/09/16 04:14:56;;;;;;;15.60;14.20;;;11.30;99.90;;;;;;5088850;28;20537;-70
2022/09/16 04:17:23;;;;;;;15.40;14.00;;;11.20;99.90;;;;;;5089757;28;21230;-70
2022/09/16 04:19:51;;;;;;;14.53;13.47;;;11.20;99.90;;;;;;5091481;28;20458;-69
2022/09/16 04:22:18;;;;;;;14.00;13.00;;;11.20;99.90;;;;;;5092776;28;20869;-70
2022/09/16 04:24:46;;;;;;;22.70;13.47;;;11.20;99.90;;;;;;5090268;28;20456;-68
2022/09/16 04:27:14;;;;;;;13.47;12.40;;;11.30;99.90;;;;;;5093290;28;20826;-68
2022/09/16 04:29:40;;;;;;;18.53;11.63;;;11.30;99.90;;;;;;5094592;28;20489;-70
2022/09/16 04:32:07;;;;;;;16.13;12.03;;;11.40;99.90;;;;;;5091640;28;20462;-68
2022/09/16 04:34:34;;;;;;;12.60;11.47;;;11.40;99.90;;;;;;5089667;28;21040;-67
2022/09/16 04:37:01;;;;;;;19.80;11.50;;;11.50;99.90;;;;;;5089419;28;20497;-67
2022/09/16 04:39:28;;;;;;;11.97;10.97;;;11.50;99.90;;;;;;5092192;28;20457;-69
2022/09/16 04:41:56;;;;;;;13.83;11.50;;;11.60;99.90;;;;;;5093174;28;20496;-67
2022/09/16 04:44:25;;;;;;;12.27;11.30;;;11.60;99.90;;;;;;5098297;28;20468;-68
2022/09/16 04:46:52;;;;;;;11.73;10.87;;;11.60;99.90;;;;;;5092704;28;20465;-68
2022/09/16 04:49:20;;;;;;;11.83;10.60;;;11.60;99.90;;;;;;5094558;28;20449;-68
2022/09/16 04:51:47;;;;;;;10.67;9.77;;;11.70;99.90;;;;;;5089035;28;20465;-68
2022/09/16 04:54:15;;;;;;;14.10;10.00;;;11.70;99.90;;;;;;5093087;28;21059;-67
2022/09/16 04:56:42;;;;;;;10.53;9.40;;;11.60;99.90;;;;;;5092993;28;20461;-67
2022/09/16 04:59:11;;;;;;;11.03;9.13;;;11.70;99.90;;;;;;5095123;28;20523;-68
2022/09/16 05:01:40;;;;;;;14.17;8.90;;;11.70;99.90;;;;;;5089555;28;20458;-68
2022/09/16 05:04:10;;;;;;;16.83;9.30;;;11.60;99.90;;;;;;5091132;28;20461;-68
2022/09/16 05:06:39;;;;;;;11.87;9.17;;;11.60;99.90;;;;;;5090819;28;20489;-69
2022/09/16 05:09:06;;;;;;;12.90;8.83;;;11.60;99.90;;;;;;5092404;28;20536;-67
2022/09/16 05:11:36;;;;;;;8.97;8.37;;;11.70;99.90;;;;;;5090571;28;20461;-68
2022/09/16 05:14:04;;;;;;;14.23;8.93;;;11.70;99.90;;;;;;5089376;28;20517;-67
2022/09/16 05:16:32;;;;;;;13.33;8.67;;;11.70;99.90;;;;;;5090786;28;20458;-68
2022/09/16 05:19:03;;;;;;;20.87;8.37;;;11.80;99.90;;;;;;5092114;28;20468;-68
2022/09/16 05:21:32;;;;;;;10.40;8.53;;;11.80;99.90;;;;;;5094156;28;20465;-67
2022/09/16 05:24:01;;;;;;;10.13;7.63;;;11.80;99.90;;;;;;5090196;28;20473;-68
2022/09/16 05:26:31;;;;;;;8.30;7.60;;;11.80;99.90;;;;;;5095662;28;20865;-68
2022/09/16 05:29:01;;;;;;;7.13;6.60;;;11.90;99.90;;;;;;5087233;28;20496;-68
2022/09/16 05:31:30;;;;;;;17.77;7.83;;;11.90;99.90;;;;;;5087326;28;20879;-67
2022/09/16 05:33:59;;;;;;;10.60;7.47;;;11.90;99.90;;;;;;5088385;28;21083;-70
2022/09/16 05:36:29;;;;;;;13.53;7.60;;;11.90;99.90;;;;;;5090014;28;20466;-69
2022/09/16 05:38:56;;;;;;;10.27;7.00;;;12.00;99.90;;;;;;5089765;28;20470;-69
2022/09/16 05:41:24;;;;;;;8.73;7.90;;;12.00;99.90;;;;;;5087622;28;20456;-69
2022/09/16 05:43:53;;;;;;;19.93;7.90;;;12.00;99.90;;;;;;5086408;28;21049;-67
2022/09/16 05:46:36;;;;;;;9.23;8.17;;;12.00;99.90;;;;;;5090714;28;20464;-70
2022/09/16 05:49:03;;;;;;;8.43;7.73;;;12.00;99.90;;;;;;5087803;28;20473;-68
2022/09/16 05:51:31;;;;;;;7.80;7.17;;;12.10;99.90;;;;;;5094267;28;20470;-69
2022/09/16 05:53:59;;;;;;;13.17;8.73;;;12.10;99.90;;;;;;5086832;28;20489;-68
2022/09/16 05:56:30;;;;;;;11.40;9.27;;;12.10;99.90;;;;;;5090703;28;21041;-69
2022/09/16 05:58:58;;;;;;;8.23;7.80;;;12.10;99.90;;;;;;5092602;28;20558;-68
2022/09/16 06:01:27;;;;;;;9.47;8.40;;;12.20;99.90;;;;;;5089540;28;20857;-68
2022/09/16 06:03:55;;;;;;;9.07;8.37;;;12.20;99.90;;;;;;5092038;28;20465;-69
2022/09/16 06:06:25;;;;;;;11.67;8.67;;;12.10;99.90;;;;;;5086301;28;21071;-69
2022/09/16 06:08:55;;;;;;;8.60;7.90;;;12.20;99.90;;;;;;5089668;28;20453;-69
2022/09/16 06:11:22;;;;;;;9.37;8.70;;;12.30;99.90;;;;;;5090191;28;20461;-68
2022/09/16 06:13:54;;;;;;;9.70;9.00;;;12.30;99.90;;;;;;5089672;28;20504;-70
2022/09/16 06:16:21;;;;;;;17.10;9.03;;;12.20;99.90;;;;;;5091058;28;20549;-68
2022/09/16 06:18:48;;;;;;;9.33;8.43;;;12.20;99.90;;;;;;5091025;28;20564;-67
2022/09/16 06:21:15;;;;;;;21.13;8.70;;;12.10;99.90;;;;;;5087227;28;20623;-68
2022/09/16 06:23:43;;;;;;;10.07;9.07;;;12.10;99.90;;;;;;5091828;28;20466;-70
2022/09/16 06:26:14;;;;;;;10.60;8.80;;;12.00;99.90;;;;;;5090681;28;20781;-68
2022/09/16 06:28:41;;;;;;;11.63;8.30;;;12.10;99.90;;;;;;5094603;28;20881;-68
2022/09/16 06:31:11;;;;;;;14.87;8.30;;;12.10;99.90;;;;;;5090759;28;20880;-68
2022/09/16 06:33:39;;;;;;;9.47;8.37;;;12.20;99.90;;;;;;5090668;28;20476;-68
2022/09/16 06:36:08;;;;;;;9.73;7.90;;;12.20;99.90;;;;;;5093447;28;20459;-70
2022/09/16 06:38:36;;;;;;;10.27;8.07;;;12.30;99.90;;;;;;5087217;28;20462;-68
2022/09/16 06:41:05;;;;;;;9.43;7.87;;;12.50;99.90;;;;;;5094728;28;20553;-68
2022/09/16 06:43:33;;;;;;;9.10;8.20;;;12.80;99.90;;;;;;5090044;28;20486;-68
2022/09/16 06:46:02;;;;;;;12.90;7.70;;;12.90;99.90;;;;;;5098297;28;20456;-68
2022/09/16 06:48:32;;;;;;;9.20;8.40;;;12.90;99.90;;;;;;5092424;28;20465;-68
2022/09/16 06:51:00;;;;;;;12.83;9.10;;;13.00;99.90;;;;;;5099954;28;20914;-68
2022/09/16 06:53:27;;;;;;;10.30;9.40;;;13.10;99.90;;;;;;5097647;28;20982;-69
2022/09/16 06:55:54;;;;;;;10.93;9.77;;;13.20;99.90;;;;;;5096216;28;20846;-68
2022/09/16 06:58:21;;;;;;;10.37;9.50;;;13.30;99.90;;;;;;5094374;28;20461;-68
2022/09/16 07:00:50;;;;;;;10.07;9.43;;;13.40;99.90;;;;;;5095378;28;20976;-69
2022/09/16 07:03:18;;;;;;;10.03;9.20;;;13.30;99.90;;;;;;5093179;28;20537;-68
2022/09/16 07:05:56;;;;;;;10.30;9.60;;;13.40;99.90;;;;;;5094647;28;20466;-70
2022/09/16 07:08:23;;;;;;;10.77;9.50;;;13.40;99.90;;;;;;5093820;28;20470;-68
2022/09/16 07:10:56;;;;;;;10.60;9.70;;;13.50;99.90;;;;;;5095526;28;20558;-70
2022/09/16 07:13:23;;;;;;;14.93;9.73;;;13.60;99.90;;;;;;5093446;28;20462;-69
2022/09/16 07:15:51;;;;;;;10.43;9.63;;;13.60;99.90;;;;;;5092118;28;20480;-69
2022/09/16 07:18:19;;;;;;;11.23;10.23;;;13.70;99.90;;;;;;5096199;28;20469;-70
2022/09/16 07:20:46;;;;;;;10.77;9.97;;;13.80;99.90;;;;;;5091308;28;20543;-71
2022/09/16 07:23:13;;;;;;;13.40;9.80;;;13.70;99.90;;;;;;5092490;28;20469;-69
2022/09/16 07:25:40;;;;;;;11.50;10.47;;;13.80;99.90;;;;;;5102278;28;20457;-69
2022/09/16 07:28:07;;;;;;;10.97;10.17;;;13.80;99.90;;;;;;5092059;28;20573;-70
2022/09/16 07:30:34;;;;;;;11.70;10.73;;;13.90;99.90;;;;;;5093674;28;20506;-69
2022/09/16 07:33:03;;;;;;;11.13;10.43;;;14.00;99.90;;;;;;5094538;28;20461;-69
2022/09/16 07:35:30;;;;;;;11.97;10.97;;;13.90;99.90;;;;;;5091786;28;20848;-71
2022/09/16 07:37:56;;;;;;;11.37;10.57;;;13.90;99.90;;;;;;5094299;28;20464;-69
2022/09/16 07:40:23;;;;;;;11.93;11.03;;;13.90;99.90;;;;;;5086360;28;20476;-69
2022/09/16 07:42:50;;;;;;;12.53;11.33;;;13.90;99.90;;;;;;5091227;28;20455;-70
2022/09/16 07:45:18;;;;;;;11.60;11.00;;;13.80;99.90;;;;;;5092962;28;20461;-70
2022/09/16 07:47:48;;;;;;;13.07;12.03;;;13.80;99.90;;;;;;5094828;28;20531;-69
2022/09/16 07:50:16;;;;;;;12.47;11.77;;;13.90;99.90;;;;;;5095272;28;20457;-69
2022/09/16 07:52:44;;;;;;;19.80;12.57;;;14.10;99.90;;;;;;5093013;28;20454;-69
2022/09/16 07:55:11;;;;;;;60.93;19.33;;;14.40;99.90;;;;;;5091750;28;20542;-69
2022/09/16 07:57:38;;;;;;;13.47;12.67;;;14.50;99.90;;;;;;5095167;28;20879;-69
2022/09/16 08:00:06;;;;;;;14.10;12.70;;;14.60;99.90;;;;;;5094536;28;20458;-70
2022/09/16 08:02:32;;;;;;;15.00;12.60;;;14.60;99.90;;;;;;5088059;28;20454;-70
2022/09/16 08:04:59;;;;;;;13.97;12.90;;;14.70;99.90;;;;;;5091771;28;20473;-69
2022/09/16 08:07:27;;;;;;;13.00;11.87;;;14.80;99.90;;;;;;5094323;28;20486;-69
2022/09/16 08:09:54;;;;;;;12.93;12.13;;;15.00;99.90;;;;;;5092485;28;20465;-70
2022/09/16 08:12:21;;;;;;;12.87;12.23;;;15.00;99.90;;;;;;5094045;28;20461;-69
2022/09/16 08:14:48;;;;;;;13.90;12.80;;;15.00;99.90;;;;;;5089194;28;20466;-69
2022/09/16 08:17:15;;;;;;;14.10;13.13;;;14.90;99.90;;;;;;5091700;28;20469;-68
2022/09/16 08:19:41;;;;;;;14.00;13.10;;;14.80;99.90;;;;;;5096990;28;20956;-69
2022/09/16 08:22:08;;;;;;;13.67;12.40;;;14.70;99.90;;;;;;5091722;28;20561;-69
2022/09/16 08:24:37;;;;;;;12.67;11.83;;;14.60;99.90;;;;;;5093929;28;20476;-68
2022/09/16 08:27:04;;;;;;;12.80;12.00;;;14.50;99.90;;;;;;5098180;28;20862;-67
2022/09/16 08:29:31;;;;;;;13.20;12.40;;;14.60;99.90;;;;;;5094978;28;20488;-66
2022/09/16 08:31:57;;;;;;;12.60;11.80;;;14.70;99.90;;;;;;5097386;28;20462;-68
2022/09/16 08:34:25;;;;;;;13.73;13.03;;;15.00;99.90;;;;;;5086715;28;21144;-68
2022/09/16 08:36:52;;;;;;;13.83;13.07;;;15.20;99.90;;;;;;5091492;28;20564;-68
2022/09/16 08:39:20;;;;;;;14.13;12.70;;;15.40;99.90;;;;;;5094625;28;20475;-70
2022/09/16 08:42:04;;;;;;;14.80;13.60;;;15.60;99.90;;;;;;5090204;28;20485;-70
2022/09/16 08:44:39;;;;;;;14.83;13.80;;;15.80;99.90;;;;;;5092873;28;20491;-69
2022/09/16 08:47:15;;;;;;;15.00;14.17;;;16.10;99.90;;;;;;5089465;28;20489;-68
2022/09/16 08:49:45;;;;;;;15.00;14.17;;;16.30;99.90;;;;;;5091447;28;20465;-69
2022/09/16 08:52:16;;;;;;;15.53;14.43;;;16.10;99.90;;;;;;5094144;28;20491;-69
2022/09/16 08:54:46;;;;;;;15.03;14.03;;;16.20;99.90;;;;;;5093633;28;20556;-69
2022/09/16 08:57:18;;;;;;;17.10;14.70;;;16.10;99.90;;;;;;5093526;28;20456;-70
2022/09/16 08:59:49;;;;;;;15.23;14.33;;;16.30;99.90;;;;;;5090870;28;20495;-69
2022/09/16 09:02:39;;;;;;;15.97;14.60;;;16.40;99.90;;;;;;5091702;28;21122;-68
2022/09/16 09:05:19;;;;;;;15.73;14.37;;;16.40;99.90;;;;;;5089576;28;20536;-67
2022/09/16 09:08:01;;;;;;;15.60;14.60;;;16.30;99.90;;;;;;5088426;28;20532;-68
2022/09/16 09:10:37;;;;;;;14.87;13.70;;;16.20;99.90;;;;;;5099256;28;20450;-70
2022/09/16 09:13:17;;;;;;;15.47;14.30;;;16.00;99.90;;;;;;5093272;28;20470;-70
2022/09/16 09:15:52;;;;;;;15.73;14.70;;;15.50;99.90;;;;;;5092777;28;20481;-69
2022/09/16 09:18:35;;;;;;;16.90;14.47;;;15.40;99.90;;;;;;5092764;28;20472;-70
2022/09/16 09:21:18;;;;;;;14.37;13.40;;;15.50;99.90;;;;;;5094992;28;20462;-69
2022/09/16 09:23:56;;;;;;;14.17;13.10;;;15.90;99.90;;;;;;5089202;28;20464;-69
2022/09/16 09:26:33;;;;;;;14.80;13.90;;;16.20;99.90;;;;;;5089500;28;20533;-70
2022/09/16 09:29:27;;;;;;;15.33;14.50;;;17.00;99.90;;;;;;5092104;28;20477;-70
2022/09/16 09:32:03;;;;;;;16.27;14.63;;;17.40;99.90;;;;;;5096741;28;20469;-69
2022/09/16 09:34:41;;;;;;;15.00;14.10;;;17.70;99.90;;;;;;5092628;28;20869;-68
2022/09/16 09:37:23;;;;;;;15.57;14.43;;;18.20;99.90;;;;;;5088816;28;20825;-71
2022/09/16 09:40:03;;;;;;;16.00;14.80;;;18.30;99.90;;;;;;5093929;28;20459;-70
2022/09/16 09:42:35;;;;;;;15.37;14.50;;;17.70;99.90;;;;;;5097076;28;20527;-68
2022/09/16 09:45:11;;;;;;;14.77;13.87;;;17.30;99.90;;;;;;5087656;28;20465;-69
2022/09/16 09:47:42;;;;;;;15.37;14.57;;;17.10;99.90;;;;;;5092014;28;20484;-69
2022/09/16 09:50:16;;;;;;;15.40;14.50;;;17.30;99.90;;;;;;5090185;28;20544;-68
2022/09/16 09:52:47;;;;;;;15.13;13.90;;;17.40;99.90;;;;;;5088574;28;20458;-69
2022/09/16 09:55:17;;;;;;;15.83;14.67;;;17.60;99.90;;;;;;5090797;28;20528;-69
2022/09/16 09:57:56;;;;;;;16.10;15.10;;;18.00;99.90;;;;;;5084848;28;20466;-68
2022/09/16 10:00:24;;;;;;;16.07;14.97;;;17.70;99.90;;;;;;5089057;28;20531;-69
2022/09/16 10:02:51;;;;;;;16.13;14.97;;;17.10;99.90;;;;;;5091768;28;20460;-70
2022/09/16 10:05:22;;;;;;;20.93;14.17;;;16.70;99.90;;;;;;5093074;28;20521;-69
2022/09/16 10:07:50;;;;;;;15.33;14.23;;;16.80;99.90;;;;;;5093379;28;20485;-71
2022/09/16 10:10:21;;;;;;;15.03;14.13;;;17.60;99.90;;;;;;5087634;28;20461;-68
2022/09/16 10:12:48;;;;;;;15.03;14.10;;;18.10;99.90;;;;;;5092202;28;20484;-69
2022/09/16 10:15:27;;;;;;;14.47;13.67;;;18.10;99.90;;;;;;5090413;28;20500;-69
2022/09/16 10:17:56;;;;;;;15.90;14.90;;;18.20;99.90;;;;;;5090826;28;20462;-68
2022/09/16 10:20:27;;;;;;;16.37;14.70;;;18.60;99.90;;;;;;5089005;28;20461;-70
2022/09/16 10:23:01;;;;;;;14.80;14.00;;;19.00;99.90;;;;;;5093608;28;20462;-70
2022/09/16 10:25:29;;;;;;;16.03;15.03;;;19.00;99.90;;;;;;5091481;28;20497;-68
2022/09/16 10:27:58;;;;;;;16.20;14.90;;;19.00;99.90;;;;;;5088591;28;20488;-69
2022/09/16 10:30:31;;;;;;;16.33;15.23;;;18.80;99.90;;;;;;5092324;28;20553;-71
2022/09/16 10:33:01;;;;;;;15.30;14.50;;;18.40;99.90;;;;;;5090471;28;20458;-69
2022/09/16 10:35:30;;;;;;;16.43;15.10;;;18.00;99.90;;;;;;5093463;28;20472;-68
2022/09/16 10:37:59;;;;;;;15.30;14.50;;;17.70;99.90;;;;;;5088072;28;20461;-68
2022/09/16 10:40:26;;;;;;;15.47;14.67;;;17.20;99.90;;;;;;5093428;28;20464;-68
2022/09/16 10:42:56;;;;;;;14.80;14.00;;;16.80;99.90;;;;;;5091451;28;20458;-71
2022/09/16 10:45:29;;;;;;;15.77;14.97;;;17.30;99.90;;;;;;5095376;28;20823;-68
2022/09/16 10:47:59;;;;;;;15.13;14.37;;;17.80;99.90;;;;;;5088150;28;20469;-68
2022/09/16 10:50:27;;;;;;;15.77;14.63;;;18.10;99.90;;;;;;5088057;28;20480;-68
2022/09/16 10:52:54;;;;;;;15.60;14.70;;;18.20;99.90;;;;;;5084809;28;21051;-69
2022/09/16 10:55:25;;;;;;;15.37;14.47;;;18.80;99.90;;;;;;5085596;28;20703;-68
2022/09/16 10:57:53;;;;;;;15.33;14.37;;;19.00;99.90;;;;;;5087511;28;20454;-70
2022/09/16 11:00:21;;;;;;;16.20;15.20;;;19.10;99.90;;;;;;5089432;28;20898;-68
2022/09/16 11:03:40;;;;;;;15.83;15.00;;;18.60;99.90;;;;;;5090479;28;20480;-70
2022/09/16 11:06:19;;;;;;;15.47;14.50;;;18.10;99.90;;;;;;5091046;28;20465;-69
2022/09/16 11:08:58;;;;;;;15.80;14.90;;;18.40;99.90;;;;;;5090418;28;20468;-70
2022/09/16 11:11:46;;;;;;;15.30;14.40;;;18.50;99.90;;;;;;5089123;28;20462;-68
2022/09/16 11:14:24;;;;;;;15.63;14.83;;;18.40;99.90;;;;;;5088612;28;20465;-68
2022/09/16 11:17:10;;;;;;;15.73;14.83;;;18.40;99.90;;;;;;5087368;28;20497;-68
2022/09/16 11:19:53;;;;;;;15.13;14.33;;;18.80;99.90;;;;;;5090910;28;20536;-68
2022/09/16 11:22:29;;;;;;;15.90;14.77;;;19.00;99.90;;;;;;5088722;28;20464;-68
2022/09/16 11:25:28;;;;;;;16.40;15.20;;;19.60;99.90;;;;;;5089600;28;21058;-70
2022/09/16 11:28:07;;;;;;;16.60;14.70;;;19.50;99.90;;;;;;5088357;28;20580;-68
2022/09/16 11:30:40;;;;;;;15.77;14.77;;;19.30;99.90;;;;;;5091124;28;20523;-68
2022/09/16 11:33:19;;;;;;;16.00;15.00;;;19.20;99.90;;;;;;5091968;28;20959;-67
2022/09/16 11:36:23;;;;;;;16.00;15.10;;;18.50;99.90;;;;;;5094270;28;20829;-69
2022/09/16 11:39:04;;;;;;;15.80;14.70;;;17.90;99.90;;;;;;5093217;28;20462;-69
2022/09/16 11:41:35;;;;;;;15.50;14.60;;;17.20;99.90;;;;;;5091845;28;20456;-68
2022/09/16 11:44:25;;;;;;;24.57;19.30;;;15.60;99.90;;;;;;5087022;28;20468;-67
2022/09/16 11:47:03;;;;;;;22.10;20.60;;;14.30;99.90;;;;;;5088644;28;20509;-69
2022/09/16 11:49:41;;;;;;;19.23;18.03;;;13.40;99.90;;;;;;5092207;28;20468;-69
2022/09/16 11:52:27;;;;;;;17.63;16.33;;;12.90;99.90;;;;;;5091790;28;21076;-69
2022/09/16 11:55:14;;;;;;;16.97;15.57;;;12.60;99.90;;;;;;5095496;28;20489;-69
2022/09/16 11:57:45;;;;;;;16.73;15.53;;;12.60;99.90;;;;;;5090215;28;20490;-67
2022/09/16 12:00:15;;;;;;;15.97;15.07;;;12.30;99.90;;;;;;5092324;28;20458;-67
2022/09/16 12:02:49;;;;;;;15.43;14.60;;;12.30;99.90;;;;;;5089398;28;20553;-68
2022/09/16 12:05:20;;;;;;;15.33;14.53;;;12.20;99.90;;;;;;5091445;28;21168;-67
2022/09/16 12:07:54;;;;;;;15.67;14.57;;;12.20;99.90;;;;;;5091703;28;20861;-67
2022/09/16 12:10:26;;;;;;;14.83;13.97;;;12.20;99.90;;;;;;5091159;28;20484;-68
2022/09/16 12:12:56;;;;;;;14.30;13.40;;;12.10;99.90;;;;;;5099034;28;20461;-69
2022/09/16 12:15:27;;;;;;;14.50;13.70;;;12.20;99.90;;;;;;5091918;28;20827;-70
2022/09/16 12:17:56;;;;;;;14.77;13.60;;;12.20;99.90;;;;;;5089693;28;20469;-68
2022/09/16 12:20:26;;;;;;;14.07;13.47;;;12.20;99.90;;;;;;5092152;28;20519;-67
2022/09/16 12:23:00;;;;;;;15.93;14.80;;;12.10;99.90;;;;;;5090663;28;20477;-67
2022/09/16 12:25:32;;;;;;;16.80;15.73;;;12.00;99.90;;;;;;5096550;28;20473;-68
2022/09/16 12:28:03;;;;;;;17.47;16.17;;;12.00;99.90;;;;;;5090693;28;20491;-68
2022/09/16 12:30:37;;;;;;;17.67;16.27;;;12.00;99.90;;;;;;5096386;28;20469;-69
2022/09/16 12:33:12;;;;;;;18.07;16.97;;;12.00;99.90;;;;;;5096468;28;20465;-69
2022/09/16 12:35:42;;;;;;;19.70;18.00;;;11.90;99.90;;;;;;5091485;28;20485;-68
2022/09/16 12:38:16;;;;;;;18.03;16.97;;;11.80;99.90;;;;;;5081390;28;20550;-69
2022/09/16 12:40:59;;;;;;;18.23;17.03;;;11.90;99.90;;;;;;5092904;28;20878;-69
2022/09/16 12:43:55;;;;;;;16.50;15.40;;;12.00;99.90;;;;;;5089864;28;20462;-71
2022/09/16 12:47:09;;;;;;;16.57;15.60;;;12.10;99.90;;;;;;5091791;28;20485;-70
2022/09/16 12:49:56;;;;;;;16.07;14.80;;;12.10;99.90;;;;;;5070016;28;20509;-69
2022/09/16 12:52:31;;;;;;;15.60;14.70;;;12.00;99.90;;;;;;5086417;28;20478;-70
2022/09/16 12:55:24;;;;;;;15.03;14.13;;;12.10;99.90;;;;;;5093612;28;20522;-70
2022/09/16 12:58:10;;;;;;;14.50;13.80;;;12.10;99.90;;;;;;5089856;28;20458;-71